Time;durP1;ratioP1;P1;durP2;ratioP2;P2;SDS_P1;SDS_P2;PMS_P1;PMS_P2;Temp;Humidity;BMP_temperature;BMP_pressure;BME280_temperature;BME280_humidity;BME280_pressure;Samples;Min_cycle;Max_cycle;Signal;HPM_P1;HPM_P2
2022/01/31 00:02:11;;;;;;;1.35;0.85;;;18.10;58.10;;;;;;6256076;22;20148;-83
2022/01/31 00:04:37;;;;;;;2.88;0.80;;;18.10;58.00;;;;;;6255970;22;20152;-83
2022/01/31 00:07:03;;;;;;;2.15;0.82;;;18.10;58.10;;;;;;6230795;22;20262;-83
2022/01/31 00:09:29;;;;;;;3.58;0.80;;;18.10;58.20;;;;;;6256216;22;20174;-83
2022/01/31 00:12:00;;;;;;;3.10;0.68;;;18.10;58.00;;;;;;6256565;22;20227;-84
2022/01/31 00:14:34;;;;;;;1.27;0.88;;;18.10;58.00;;;;;;6232190;22;20151;-83
2022/01/31 00:17:00;;;;;;;1.05;0.70;;;18.00;58.00;;;;;;6234085;22;20169;-83
2022/01/31 00:19:26;;;;;;;1.50;0.77;;;18.00;58.00;;;;;;6230819;22;20225;-83
2022/01/31 00:21:52;;;;;;;1.60;0.73;;;18.10;57.90;;;;;;6230563;22;20273;-84
2022/01/31 00:24:18;;;;;;;1.83;0.50;;;18.10;57.80;;;;;;6255292;22;20575;-83
2022/01/31 00:26:43;;;;;;;1.17;0.70;;;18.00;57.70;;;;;;6230603;22;20259;-83
2022/01/31 00:29:09;;;;;;;1.58;0.60;;;18.10;57.90;;;;;;6255791;22;20506;-83
2022/01/31 00:31:35;;;;;;;2.28;0.73;;;18.10;57.80;;;;;;6230548;22;20143;-83
2022/01/31 00:34:00;;;;;;;1.23;0.70;;;18.10;57.60;;;;;;6230615;22;20144;-84
2022/01/31 00:36:26;;;;;;;1.85;0.70;;;18.10;57.80;;;;;;6230162;22;20591;-83
2022/01/31 00:38:52;;;;;;;2.45;0.70;;;18.10;57.70;;;;;;6280920;22;20124;-83
2022/01/31 00:41:18;;;;;;;3.33;0.80;;;18.10;57.80;;;;;;6255856;22;20124;-83
2022/01/31 00:43:54;;;;;;;1.02;0.68;;;18.00;57.80;;;;;;6255313;22;20132;-83
2022/01/31 00:46:26;;;;;;;2.08;0.70;;;18.10;57.60;;;;;;6235592;22;20136;-83
2022/01/31 00:48:51;;;;;;;0.85;0.52;;;18.00;57.80;;;;;;6232180;22;20144;-83
2022/01/31 00:51:17;;;;;;;1.30;0.82;;;18.10;57.80;;;;;;6230374;22;20517;-83
2022/01/31 00:53:43;;;;;;;0.82;0.52;;;18.10;57.80;;;;;;6255979;22;20132;-84
2022/01/31 00:56:09;;;;;;;1.90;0.95;;;18.10;57.80;;;;;;6255889;22;20124;-83
2022/01/31 00:58:35;;;;;;;1.48;0.70;;;18.10;57.70;;;;;;6255547;22;20132;-83
2022/01/31 01:01:00;;;;;;;0.93;0.60;;;18.00;57.80;;;;;;6210709;23;20203;-83
2022/01/31 01:03:26;;;;;;;1.13;0.60;;;18.00;57.70;;;;;;6174024;23;20152;-83
2022/01/31 01:05:53;;;;;;;1.05;0.55;;;18.00;57.80;;;;;;6199673;23;20156;-83
2022/01/31 01:08:19;;;;;;;0.95;0.70;;;18.00;57.80;;;;;;6223793;23;20164;-84
2022/01/31 01:10:44;;;;;;;1.35;0.70;;;18.00;57.80;;;;;;6173638;23;20171;-83
2022/01/31 01:13:11;;;;;;;1.80;0.60;;;18.00;57.70;;;;;;6199360;23;20531;-83
2022/01/31 01:15:36;;;;;;;2.08;0.90;;;18.00;57.60;;;;;;6223930;23;20144;-83
2022/01/31 01:18:02;;;;;;;1.15;0.70;;;18.00;57.60;;;;;;6122853;23;20140;-84
2022/01/31 01:20:28;;;;;;;1.42;0.70;;;18.00;57.60;;;;;;6199604;23;20132;-83
2022/01/31 01:22:54;;;;;;;1.98;0.70;;;18.00;57.50;;;;;;6199078;23;20139;-83
2022/01/31 01:25:19;;;;;;;1.33;0.80;;;18.10;57.40;;;;;;6199749;23;20556;-83
2022/01/31 01:27:49;;;;;;;0.90;0.63;;;18.00;57.50;;;;;;6198405;23;20175;-83
2022/01/31 01:30:15;;;;;;;1.05;0.68;;;18.10;57.60;;;;;;6196653;23;20178;-83
2022/01/31 01:32:58;;;;;;;1.30;0.70;;;18.00;57.60;;;;;;6200063;23;20144;-83
2022/01/31 01:35:26;;;;;;;1.67;0.80;;;18.00;57.50;;;;;;6181164;23;20571;-84
2022/01/31 01:37:52;;;;;;;0.70;0.65;;;18.00;57.70;;;;;;6199591;23;20160;-83
2022/01/31 01:40:22;;;;;;;1.08;0.60;;;18.00;57.50;;;;;;6224401;23;20499;-83
2022/01/31 01:42:50;;;;;;;1.00;0.60;;;18.00;57.50;;;;;;6173016;23;20606;-83
2022/01/31 01:45:18;;;;;;;1.10;0.50;;;18.00;57.50;;;;;;6148145;23;20618;-83
2022/01/31 01:47:46;;;;;;;1.38;0.80;;;18.00;57.40;;;;;;6148198;23;20270;-83
2022/01/31 01:50:11;;;;;;;1.67;0.75;;;18.00;57.30;;;;;;6123701;23;20163;-84
2022/01/31 01:52:37;;;;;;;1.48;0.65;;;18.00;57.20;;;;;;6198315;23;20144;-83
2022/01/31 01:55:03;;;;;;;2.15;0.70;;;18.00;57.30;;;;;;6173357;23;20564;-84
2022/01/31 01:57:29;;;;;;;2.08;0.70;;;18.00;57.40;;;;;;6173761;23;20635;-83
2022/01/31 01:59:56;;;;;;;1.02;0.70;;;18.00;57.40;;;;;;6226063;22;20218;-83
2022/01/31 02:02:24;;;;;;;1.58;0.80;;;18.00;57.50;;;;;;6230421;22;20260;-83
2022/01/31 02:04:49;;;;;;;1.15;0.90;;;18.00;57.40;;;;;;6202852;22;20155;-83
2022/01/31 02:07:15;;;;;;;1.38;0.80;;;18.00;57.20;;;;;;6229875;22;20502;-83
2022/01/31 02:09:45;;;;;;;1.85;0.70;;;18.00;57.20;;;;;;6229218;22;20144;-83
2022/01/31 02:12:11;;;;;;;0.82;0.60;;;18.10;57.30;;;;;;6231995;22;20467;-84
2022/01/31 02:14:36;;;;;;;1.20;0.70;;;18.00;57.10;;;;;;6254858;22;20472;-83
2022/01/31 02:17:02;;;;;;;1.75;0.80;;;17.90;57.20;;;;;;6254559;22;20152;-83
2022/01/31 02:19:28;;;;;;;1.35;0.70;;;18.00;57.30;;;;;;6230180;22;20265;-83
2022/01/31 02:21:54;;;;;;;0.90;0.60;;;18.00;57.10;;;;;;6229591;22;20523;-83
2022/01/31 02:24:20;;;;;;;1.70;0.60;;;18.00;57.50;;;;;;6254781;22;20139;-84
2022/01/31 02:26:45;;;;;;;3.58;0.82;;;17.90;57.00;;;;;;6280632;22;20222;-83
2022/01/31 02:29:11;;;;;;;1.45;0.80;;;18.00;57.20;;;;;;6254862;22;20467;-84
2022/01/31 02:31:45;;;;;;;2.30;0.82;;;18.00;57.20;;;;;;6229250;22;20521;-83
2022/01/31 02:34:11;;;;;;;2.10;0.70;;;17.90;57.10;;;;;;6231138;22;20148;-83
2022/01/31 02:36:37;;;;;;;1.70;0.60;;;18.00;57.00;;;;;;6254582;22;20136;-83
2022/01/31 02:39:04;;;;;;;1.30;0.80;;;18.00;57.10;;;;;;6229829;22;20154;-84
2022/01/31 02:41:30;;;;;;;1.08;0.73;;;17.90;57.20;;;;;;6230506;22;20148;-83
2022/01/31 02:43:56;;;;;;;1.80;0.77;;;17.90;57.10;;;;;;6229361;22;20148;-83
2022/01/31 02:46:25;;;;;;;1.63;0.80;;;17.90;57.10;;;;;;6279965;22;20139;-83
2022/01/31 02:48:52;;;;;;;1.20;0.80;;;17.90;57.00;;;;;;6231412;22;20285;-83
2022/01/31 02:51:22;;;;;;;1.70;0.70;;;18.00;57.10;;;;;;6255585;22;20556;-83
2022/01/31 02:53:49;;;;;;;1.42;0.88;;;17.90;57.00;;;;;;6205378;22;20152;-83
2022/01/31 02:56:15;;;;;;;1.58;0.80;;;17.90;56.90;;;;;;6203492;22;20163;-83
2022/01/31 02:58:41;;;;;;;2.58;0.73;;;17.90;56.90;;;;;;6256530;22;20415;-83
2022/01/31 03:01:07;;;;;;;1.73;0.73;;;17.90;57.00;;;;;;6230616;22;20188;-83
2022/01/31 03:03:32;;;;;;;3.35;0.80;;;17.90;57.20;;;;;;6231339;22;20182;-83
2022/01/31 03:05:58;;;;;;;0.75;0.70;;;17.90;57.00;;;;;;6256669;22;20204;-83
2022/01/31 03:08:24;;;;;;;2.25;0.80;;;17.90;56.90;;;;;;6282113;22;20169;-83
2022/01/31 03:10:50;;;;;;;2.10;0.70;;;18.00;56.90;;;;;;6231474;22;20151;-83
2022/01/31 03:13:16;;;;;;;1.33;0.80;;;17.90;56.90;;;;;;6256781;22;20216;-84
2022/01/31 03:15:42;;;;;;;1.38;0.80;;;18.00;57.10;;;;;;6256313;22;20128;-84
2022/01/31 03:18:08;;;;;;;1.10;0.60;;;17.90;56.70;;;;;;6256449;22;20435;-82
2022/01/31 03:20:33;;;;;;;1.30;0.75;;;17.90;56.90;;;;;;6281862;22;20139;-83
2022/01/31 03:23:00;;;;;;;1.60;0.60;;;17.90;57.00;;;;;;6256192;22;20144;-82
2022/01/31 03:25:25;;;;;;;2.53;0.93;;;17.90;56.90;;;;;;6256374;22;20150;-83
2022/01/31 03:27:51;;;;;;;1.52;0.70;;;17.90;57.10;;;;;;6309138;22;20200;-83
2022/01/31 03:30:19;;;;;;;1.50;0.70;;;17.90;56.70;;;;;;6281631;22;20139;-83
2022/01/31 03:32:45;;;;;;;1.42;0.90;;;17.90;56.70;;;;;;6281829;22;20140;-83
2022/01/31 03:35:11;;;;;;;1.20;0.63;;;18.00;56.70;;;;;;6256541;22;20179;-83
2022/01/31 03:37:38;;;;;;;2.30;0.80;;;17.90;56.80;;;;;;6230758;22;20579;-83
2022/01/31 03:40:04;;;;;;;2.22;1.15;;;17.90;56.70;;;;;;6255913;22;20148;-83
2022/01/31 03:42:30;;;;;;;1.30;0.68;;;17.90;56.80;;;;;;6281533;22;20136;-83
2022/01/31 03:44:55;;;;;;;1.67;0.60;;;17.90;56.80;;;;;;6281727;22;20567;-83
2022/01/31 03:47:21;;;;;;;2.97;0.70;;;17.90;56.80;;;;;;6281427;22;20610;-83
2022/01/31 03:49:48;;;;;;;1.30;0.70;;;17.90;56.60;;;;;;6255885;22;20124;-83
2022/01/31 03:52:14;;;;;;;1.75;0.80;;;17.90;56.90;;;;;;6255888;22;20167;-83
2022/01/31 03:54:39;;;;;;;1.08;0.70;;;17.90;56.90;;;;;;6256096;22;20129;-83
2022/01/31 03:57:05;;;;;;;0.90;0.60;;;17.90;56.70;;;;;;6255868;22;20160;-84
2022/01/31 03:59:31;;;;;;;1.92;0.68;;;17.90;56.40;;;;;;6231163;22;20144;-83
2022/01/31 04:01:56;;;;;;;0.90;0.60;;;17.90;56.60;;;;;;6255308;22;20191;-84
2022/01/31 04:04:22;;;;;;;0.88;0.68;;;17.90;56.60;;;;;;6230981;22;20483;-83
2022/01/31 04:06:48;;;;;;;1.63;0.70;;;17.90;56.70;;;;;;6256030;22;20591;-83
2022/01/31 04:09:13;;;;;;;1.48;0.65;;;17.90;56.70;;;;;;6230768;22;20151;-83
2022/01/31 04:11:41;;;;;;;0.70;0.47;;;17.80;56.50;;;;;;6281186;22;20132;-83
2022/01/31 04:14:08;;;;;;;0.98;0.60;;;17.90;56.30;;;;;;6282095;22;20170;-84
2022/01/31 04:16:33;;;;;;;1.50;0.73;;;17.90;56.40;;;;;;6281267;22;20136;-84
2022/01/31 04:18:59;;;;;;;1.48;0.75;;;17.90;56.50;;;;;;6255733;22;20167;-84
2022/01/31 04:21:25;;;;;;;1.58;0.80;;;17.90;56.60;;;;;;6281139;22;20136;-83
2022/01/31 04:23:51;;;;;;;1.15;0.60;;;17.90;56.60;;;;;;6230234;22;20144;-84
2022/01/31 04:26:18;;;;;;;2.55;0.70;;;17.90;56.50;;;;;;6308989;22;20132;-82
2022/01/31 04:28:48;;;;;;;1.42;0.70;;;17.90;56.30;;;;;;6280959;22;20159;-84
2022/01/31 04:31:36;;;;;;;1.27;0.73;;;17.90;56.60;;;;;;6257826;22;20156;-83
2022/01/31 04:34:02;;;;;;;1.25;0.70;;;17.90;56.70;;;;;;6285747;22;20148;-84
2022/01/31 04:36:29;;;;;;;1.10;0.50;;;17.90;56.50;;;;;;6229238;22;20655;-83
2022/01/31 04:38:56;;;;;;;1.40;0.60;;;17.90;56.50;;;;;;6204335;22;20155;-84
2022/01/31 04:41:23;;;;;;;1.92;0.68;;;17.90;56.60;;;;;;6228879;22;20158;-83
2022/01/31 04:43:50;;;;;;;1.00;0.75;;;17.90;56.40;;;;;;6204108;22;20180;-83
2022/01/31 04:46:15;;;;;;;2.10;0.80;;;17.90;56.60;;;;;;6255964;22;20160;-83
2022/01/31 04:48:43;;;;;;;1.35;1.00;;;17.80;56.50;;;;;;6229891;22;20206;-84
2022/01/31 04:51:10;;;;;;;2.78;0.80;;;17.80;56.60;;;;;;6280791;22;20164;-83
2022/01/31 04:53:36;;;;;;;1.40;0.88;;;17.80;56.40;;;;;;6255469;22;20128;-83
2022/01/31 04:56:02;;;;;;;1.23;0.70;;;17.80;56.20;;;;;;6255491;22;20128;-83
2022/01/31 04:58:29;;;;;;;1.05;0.55;;;17.90;56.40;;;;;;6280776;22;20139;-84
2022/01/31 05:00:55;;;;;;;0.98;0.60;;;17.90;56.20;;;;;;6243873;22;20283;-83
2022/01/31 05:03:21;;;;;;;0.85;0.65;;;17.80;56.20;;;;;;6224385;23;20199;-83
2022/01/31 05:05:48;;;;;;;1.50;0.75;;;17.90;56.20;;;;;;6224243;23;20166;-83
2022/01/31 05:08:14;;;;;;;1.40;0.70;;;17.90;56.10;;;;;;6122465;23;20172;-83
2022/01/31 05:10:44;;;;;;;0.63;0.50;;;17.90;56.20;;;;;;6122214;23;20136;-84
2022/01/31 05:13:12;;;;;;;0.75;0.60;;;17.90;56.40;;;;;;6175440;23;20635;-84
2022/01/31 05:15:39;;;;;;;1.52;0.73;;;17.80;56.20;;;;;;6223889;23;20461;-84
2022/01/31 05:18:05;;;;;;;1.33;0.80;;;17.80;56.20;;;;;;6172391;23;20242;-83
2022/01/31 05:20:30;;;;;;;1.25;0.70;;;17.80;56.60;;;;;;6198513;23;20184;-83
2022/01/31 05:22:56;;;;;;;1.58;0.73;;;17.80;56.40;;;;;;6224076;23;20140;-84
2022/01/31 05:25:24;;;;;;;1.17;0.60;;;17.80;56.10;;;;;;6198575;23;20576;-83
2022/01/31 05:27:51;;;;;;;1.10;0.60;;;17.90;56.20;;;;;;6124036;23;20275;-83
2022/01/31 05:30:17;;;;;;;1.13;0.63;;;17.90;55.60;;;;;;6148226;23;20608;-84
2022/01/31 05:32:44;;;;;;;1.48;0.57;;;17.90;55.60;;;;;;6172249;23;20152;-84
2022/01/31 05:35:10;;;;;;;0.60;0.50;;;17.90;55.80;;;;;;6224022;23;20171;-84
2022/01/31 05:37:36;;;;;;;0.98;0.60;;;18.00;55.30;;;;;;6122820;23;20148;-83
2022/01/31 05:40:04;;;;;;;1.92;0.90;;;18.00;55.30;;;;;;6223628;23;20517;-84
2022/01/31 05:42:31;;;;;;;1.17;0.60;;;18.00;55.00;;;;;;6224000;23;20160;-83
2022/01/31 05:44:56;;;;;;;1.77;0.70;;;18.10;55.20;;;;;;6122363;23;20144;-84
2022/01/31 05:47:22;;;;;;;1.15;0.50;;;18.00;55.00;;;;;;6173620;23;20203;-84
2022/01/31 05:49:47;;;;;;;1.65;0.82;;;18.10;54.90;;;;;;6198298;23;20565;-83
2022/01/31 05:52:13;;;;;;;1.45;0.60;;;18.10;54.70;;;;;;6173882;23;20140;-83
2022/01/31 05:54:39;;;;;;;1.13;0.50;;;18.10;55.00;;;;;;6223537;23;20217;-84
2022/01/31 05:57:05;;;;;;;1.60;0.73;;;18.00;54.50;;;;;;6198882;23;20137;-84
2022/01/31 05:59:31;;;;;;;1.98;0.80;;;18.10;54.80;;;;;;6198555;23;20143;-84
2022/01/31 06:01:58;;;;;;;1.00;0.60;;;18.10;54.50;;;;;;6198256;23;20199;-84
2022/01/31 06:04:25;;;;;;;1.00;0.65;;;18.10;54.10;;;;;;6148262;23;20156;-83
2022/01/31 06:06:51;;;;;;;1.17;0.60;;;18.10;54.40;;;;;;6198170;23;20310;-83
2022/01/31 06:09:17;;;;;;;0.80;0.47;;;18.20;54.50;;;;;;6198732;23;20172;-85
2022/01/31 06:11:45;;;;;;;1.27;0.63;;;18.20;54.30;;;;;;6198305;23;20159;-84
2022/01/31 06:14:11;;;;;;;1.48;0.70;;;18.20;54.30;;;;;;6197085;23;20183;-84
2022/01/31 06:16:37;;;;;;;0.90;0.70;;;18.20;53.70;;;;;;6223498;23;20137;-83
2022/01/31 06:19:04;;;;;;;0.73;0.63;;;18.20;54.20;;;;;;6172551;23;20151;-84
2022/01/31 06:21:31;;;;;;;0.95;0.60;;;18.20;54.30;;;;;;6148795;23;20163;-84
2022/01/31 06:23:58;;;;;;;1.50;0.50;;;18.20;54.30;;;;;;6145872;23;20152;-83
2022/01/31 06:26:24;;;;;;;0.80;0.60;;;18.20;54.50;;;;;;6147539;23;20156;-84
2022/01/31 06:28:51;;;;;;;1.15;0.80;;;18.20;53.70;;;;;;6223198;23;20136;-84
2022/01/31 06:31:17;;;;;;;2.15;0.52;;;18.20;53.70;;;;;;6223634;23;20132;-85
2022/01/31 06:33:43;;;;;;;0.57;0.50;;;18.20;53.80;;;;;;6224751;23;20136;-84
2022/01/31 06:36:09;;;;;;;1.17;0.60;;;18.20;53.70;;;;;;6225255;23;20165;-85
2022/01/31 06:38:35;;;;;;;1.33;0.70;;;18.20;53.90;;;;;;6199926;23;20587;-84
2022/01/31 06:41:02;;;;;;;0.70;0.47;;;18.30;53.70;;;;;;6175803;23;20494;-84
2022/01/31 06:43:28;;;;;;;1.30;0.63;;;18.30;53.60;;;;;;6225213;23;20144;-85
2022/01/31 06:45:54;;;;;;;1.65;0.60;;;18.30;53.60;;;;;;6225259;23;20141;-83
2022/01/31 06:48:20;;;;;;;1.95;0.70;;;18.30;53.90;;;;;;6225328;23;20273;-84
2022/01/31 06:50:45;;;;;;;0.73;0.63;;;18.30;53.70;;;;;;6175321;23;20156;-86
2022/01/31 06:53:13;;;;;;;1.15;0.60;;;18.20;53.80;;;;;;6175318;23;20186;-83
2022/01/31 06:55:41;;;;;;;1.67;0.60;;;18.20;53.00;;;;;;6149431;23;20152;-83
2022/01/31 06:58:07;;;;;;;1.00;0.70;;;18.20;53.10;;;;;;6173935;23;20274;-84
2022/01/31 07:00:32;;;;;;;1.17;0.55;;;18.30;53.20;;;;;;6174871;23;20238;-83
2022/01/31 07:03:02;;;;;;;0.70;0.60;;;18.30;52.60;;;;;;6175195;23;20163;-84
2022/01/31 07:05:29;;;;;;;1.30;0.55;;;18.30;53.20;;;;;;6151225;23;20468;-84
2022/01/31 07:07:55;;;;;;;1.50;0.60;;;18.30;52.60;;;;;;6148996;23;20184;-83
2022/01/31 07:10:21;;;;;;;1.13;0.60;;;18.40;53.10;;;;;;6174848;23;20155;-84
2022/01/31 07:12:52;;;;;;;0.93;0.57;;;18.30;53.30;;;;;;6211850;23;20581;-81
2022/01/31 07:15:20;;;;;;;0.70;0.40;;;18.30;53.20;;;;;;6138175;23;20578;-82
2022/01/31 07:17:46;;;;;;;1.58;0.77;;;18.30;53.10;;;;;;6161726;23;20158;-85
2022/01/31 07:20:24;;;;;;;0.60;0.50;;;18.40;52.60;;;;;;6172831;23;20181;-85
2022/01/31 07:23:02;;;;;;;1.02;0.68;;;18.40;53.20;;;;;;6195604;23;20532;-88
2022/01/31 07:25:49;;;;;;;0.40;0.40;;;18.30;52.60;;;;;;6203675;23;20249;-87
2022/01/31 07:28:31;;;;;;;1.48;0.70;;;18.40;52.80;;;;;;6204528;23;20205;-87
2022/01/31 07:30:57;;;;;;;0.75;0.50;;;18.30;52.60;;;;;;6109885;23;20259;-88
2022/01/31 07:33:23;;;;;;;0.55;0.55;;;18.40;52.40;;;;;;6105301;23;20156;-87
2022/01/31 07:35:50;;;;;;;1.13;0.70;;;18.40;53.40;;;;;;6106541;23;20231;-88
2022/01/31 07:38:16;;;;;;;0.60;0.40;;;18.40;52.60;;;;;;6079897;23;20167;-87
2022/01/31 07:41:20;;;;;;;1.10;0.50;;;18.40;52.10;;;;;;6080151;23;20581;-89
2022/01/31 07:43:46;;;;;;;1.05;0.60;;;18.40;52.60;;;;;;5999452;23;20169;-88
2022/01/31 07:46:13;;;;;;;2.35;0.63;;;18.40;52.70;;;;;;6043435;23;20158;-87
2022/01/31 07:48:38;;;;;;;1.33;0.70;;;18.40;53.30;;;;;;6040609;23;20362;-86
2022/01/31 07:51:05;;;;;;;1.08;0.60;;;18.40;52.80;;;;;;6022508;23;20154;-89
2022/01/31 07:53:31;;;;;;;0.47;0.43;;;18.40;52.70;;;;;;6046332;23;20134;-87
2022/01/31 07:56:07;;;;;;;1.98;0.40;;;18.40;53.20;;;;;;6090375;23;20490;-87
2022/01/31 07:58:40;;;;;;;1.13;0.60;;;18.40;53.00;;;;;;6003821;23;20590;-87
2022/01/31 08:01:06;;;;;;;1.27;0.50;;;18.40;53.00;;;;;;6013752;23;20238;-86
2022/01/31 08:03:33;;;;;;;2.22;0.50;;;18.50;53.00;;;;;;6097204;23;20614;-84
2022/01/31 08:06:00;;;;;;;2.97;0.70;;;18.50;52.80;;;;;;6095150;23;20264;-85
2022/01/31 08:08:35;;;;;;;1.42;0.70;;;18.60;53.00;;;;;;6096855;23;20278;-84
2022/01/31 08:11:05;;;;;;;1.83;0.60;;;18.50;52.50;;;;;;6073515;23;20191;-82
2022/01/31 08:13:38;;;;;;;0.70;0.40;;;18.50;51.90;;;;;;6029830;23;20190;-82
2022/01/31 08:16:09;;;;;;;1.20;0.60;;;18.50;53.20;;;;;;6079426;23;20175;-82
2022/01/31 08:18:40;;;;;;;1.77;0.68;;;18.50;53.10;;;;;;6078910;23;20182;-83
2022/01/31 08:21:13;;;;;;;0.60;0.50;;;18.50;53.10;;;;;;6103401;23;20160;-82
2022/01/31 08:23:45;;;;;;;1.00;0.70;;;18.50;52.60;;;;;;6102172;23;20160;-82
2022/01/31 08:26:18;;;;;;;1.20;0.70;;;18.50;53.90;;;;;;6103067;23;20657;-84
2022/01/31 08:28:56;;;;;;;1.33;0.70;;;18.50;52.50;;;;;;6113229;23;20186;-83
2022/01/31 08:31:33;;;;;;;1.17;0.60;;;18.50;52.60;;;;;;6091753;23;20154;-82
2022/01/31 08:34:18;;;;;;;2.30;0.68;;;18.60;52.50;;;;;;6092011;23;20636;-83
2022/01/31 08:36:48;;;;;;;5.38;0.90;;;18.60;52.60;;;;;;6098332;23;20150;-83
2022/01/31 08:39:20;;;;;;;3.72;0.70;;;18.60;52.30;;;;;;6113689;23;20205;-82
2022/01/31 08:41:51;;;;;;;10.32;1.00;;;18.60;52.70;;;;;;6136962;23;20177;-82
2022/01/31 08:44:23;;;;;;;3.55;0.75;;;18.60;52.90;;;;;;6172714;23;20157;-82
2022/01/31 08:46:49;;;;;;;7.90;0.88;;;18.60;52.30;;;;;;6137081;23;20338;-84
2022/01/31 08:49:19;;;;;;;3.00;0.77;;;18.60;52.20;;;;;;6229515;23;20151;-84
2022/01/31 08:51:49;;;;;;;3.65;1.10;;;18.60;52.20;;;;;;6176833;23;20173;-83
2022/01/31 08:54:15;;;;;;;6.50;0.80;;;18.60;52.20;;;;;;6155979;23;20162;-84
2022/01/31 08:56:44;;;;;;;4.20;0.80;;;18.60;52.30;;;;;;6177230;23;20148;-84
2022/01/31 08:59:14;;;;;;;7.38;1.17;;;18.70;52.40;;;;;;6225503;23;20190;-83
2022/01/31 09:01:52;;;;;;;7.93;1.10;;;18.70;51.80;;;;;;6224913;22;20591;-83
2022/01/31 09:04:33;;;;;;;4.85;1.10;;;18.70;52.00;;;;;;6173883;23;20159;-83
2022/01/31 09:06:59;;;;;;;6.10;1.00;;;18.70;52.50;;;;;;6134035;23;20314;-83
2022/01/31 09:09:30;;;;;;;4.45;0.88;;;18.70;52.50;;;;;;6173598;23;20157;-83
2022/01/31 09:11:57;;;;;;;2.70;0.60;;;18.70;52.00;;;;;;6149313;23;20159;-83
2022/01/31 09:14:27;;;;;;;4.22;0.70;;;18.70;52.00;;;;;;6125968;23;20246;-82
2022/01/31 09:16:57;;;;;;;5.25;0.80;;;18.70;52.10;;;;;;6152031;23;20175;-83
2022/01/31 09:19:27;;;;;;;4.70;1.00;;;18.70;52.30;;;;;;6177288;23;20163;-84
2022/01/31 09:21:57;;;;;;;4.43;1.00;;;18.70;52.50;;;;;;6153945;23;20293;-83
2022/01/31 09:24:23;;;;;;;6.57;1.02;;;18.80;52.30;;;;;;6153536;23;20163;-83
2022/01/31 09:26:52;;;;;;;9.90;1.13;;;18.70;52.30;;;;;;6204264;23;20132;-84
2022/01/31 09:29:18;;;;;;;12.18;1.40;;;18.70;52.50;;;;;;6178549;23;20156;-83
2022/01/31 09:31:44;;;;;;;20.70;2.05;;;18.70;52.60;;;;;;6202492;23;20594;-83
2022/01/31 09:34:13;;;;;;;8.40;1.05;;;18.70;52.80;;;;;;6202422;23;20139;-83
2022/01/31 09:36:42;;;;;;;10.48;1.05;;;18.70;52.50;;;;;;6152662;23;20155;-84
2022/01/31 09:39:10;;;;;;;9.60;1.13;;;18.80;52.20;;;;;;6177305;23;20453;-84
2022/01/31 09:41:42;;;;;;;10.00;1.65;;;18.80;52.30;;;;;;6127978;23;20572;-84
2022/01/31 09:44:14;;;;;;;21.20;1.75;;;18.80;52.50;;;;;;6150746;23;20632;-84
2022/01/31 09:46:48;;;;;;;8.45;1.50;;;18.70;53.10;;;;;;6197479;23;20132;-84
2022/01/31 09:49:20;;;;;;;11.13;1.17;;;18.80;53.00;;;;;;6155871;23;20230;-83
2022/01/31 09:51:48;;;;;;;11.65;1.27;;;18.80;52.60;;;;;;6150480;23;20631;-84
2022/01/31 09:54:25;;;;;;;9.73;1.02;;;18.80;52.40;;;;;;6150733;23;20152;-84
2022/01/31 09:56:53;;;;;;;8.82;1.05;;;18.80;52.60;;;;;;6153521;23;20148;-84
2022/01/31 09:59:21;;;;;;;4.90;0.73;;;18.80;52.30;;;;;;6151855;23;20206;-83
2022/01/31 10:01:54;;;;;;;4.10;0.90;;;18.80;52.90;;;;;;6167681;23;20659;-84
2022/01/31 10:04:21;;;;;;;7.80;1.35;;;18.80;52.70;;;;;;6223149;23;20207;-82
2022/01/31 10:06:56;;;;;;;9.27;1.55;;;18.90;52.40;;;;;;6253105;22;20148;-84
2022/01/31 10:09:24;;;;;;;15.15;1.65;;;18.90;52.70;;;;;;6227092;23;20697;-84
2022/01/31 10:11:57;;;;;;;11.95;1.10;;;18.90;53.40;;;;;;6254890;22;20571;-83
2022/01/31 10:17:25;;;;;;;9.93;1.35;;;18.90;52.40;;;;;;6127535;23;20164;-84
2022/01/31 10:19:56;;;;;;;6.65;1.15;;;18.80;52.30;;;;;;6228957;23;20411;-84
2022/01/31 10:22:25;;;;;;;7.55;0.93;;;18.90;52.60;;;;;;6201765;23;20198;-84
2022/01/31 10:25:03;;;;;;;4.00;0.80;;;18.90;50.60;;;;;;6227929;23;20627;-83
2022/01/31 10:27:33;;;;;;;7.93;1.45;;;19.00;51.40;;;;;;6183405;23;20201;-84
2022/01/31 10:30:12;;;;;;;7.55;1.23;;;19.00;51.80;;;;;;6041280;23;20203;-84
2022/01/31 10:32:43;;;;;;;7.38;1.10;;;19.00;52.80;;;;;;6017277;23;20179;-84
2022/01/31 10:35:10;;;;;;;9.40;1.08;;;18.90;52.90;;;;;;6064991;23;20144;-84
2022/01/31 10:37:41;;;;;;;6.53;1.08;;;18.90;52.90;;;;;;6042038;23;20437;-84
2022/01/31 10:51:51;;;;;;;5.88;0.93;;;18.90;52.80;;;;;;6043339;23;20157;-83
2022/01/31 10:54:25;;;;;;;7.88;1.02;;;18.90;52.10;;;;;;6043860;23;20229;-83
2022/01/31 10:57:04;;;;;;;4.63;1.13;;;18.90;53.10;;;;;;6017867;23;20160;-82
2022/01/31 10:59:33;;;;;;;3.20;0.70;;;18.90;52.80;;;;;;6214394;23;20171;-82
2022/01/31 11:01:59;;;;;;;6.68;1.05;;;18.90;52.30;;;;;;6231359;22;20211;-82
2022/01/31 11:04:30;;;;;;;3.15;0.90;;;18.90;52.80;;;;;;6123976;23;20218;-82
2022/01/31 11:07:02;;;;;;;4.45;0.80;;;18.90;51.80;;;;;;6200349;23;20178;-83
2022/01/31 11:09:28;;;;;;;3.78;0.90;;;19.00;52.10;;;;;;6127507;23;20164;-83
2022/01/31 11:11:54;;;;;;;4.40;0.80;;;19.00;51.70;;;;;;6201334;23;20183;-82
2022/01/31 11:14:22;;;;;;;9.23;1.05;;;18.90;51.30;;;;;;6123385;23;20137;-84
2022/01/31 11:19:57;;;;;;;6.38;0.73;;;19.00;52.70;;;;;;6137549;23;20179;-82
2022/01/31 11:22:38;;;;;;;2.45;0.80;;;19.00;52.40;;;;;;6131253;23;20495;-82
2022/01/31 11:25:05;;;;;;;3.50;0.93;;;18.90;52.30;;;;;;6081760;23;20159;-82
2022/01/31 11:27:31;;;;;;;7.40;1.00;;;19.00;52.80;;;;;;6129850;23;20171;-82
2022/01/31 11:29:58;;;;;;;3.70;0.70;;;19.00;52.10;;;;;;6130373;23;20144;-82
2022/01/31 11:32:28;;;;;;;4.80;0.73;;;19.00;52.80;;;;;;6129870;23;20179;-82
2022/01/31 11:35:06;;;;;;;9.23;0.90;;;19.00;51.90;;;;;;6081797;23;20214;-82
2022/01/31 11:37:42;;;;;;;2.97;0.75;;;18.90;52.00;;;;;;6104818;23;20155;-83
2022/01/31 11:40:16;;;;;;;3.58;0.73;;;18.90;52.10;;;;;;6057598;23;20182;-83
2022/01/31 11:42:45;;;;;;;1.00;0.70;;;18.90;52.60;;;;;;6105750;23;20173;-85
2022/01/31 11:45:20;;;;;;;6.53;0.82;;;18.90;51.40;;;;;;6130150;23;20187;-84
2022/01/31 11:47:49;;;;;;;2.08;0.80;;;18.90;52.20;;;;;;6129829;23;20175;-84
2022/01/31 11:50:17;;;;;;;5.18;0.90;;;18.90;52.00;;;;;;6082446;23;20607;-84
2022/01/31 11:52:47;;;;;;;6.18;1.13;;;18.90;51.80;;;;;;6105485;23;20151;-84
2022/01/31 11:55:16;;;;;;;4.65;1.00;;;19.00;52.60;;;;;;6105794;23;20151;-84
2022/01/31 11:57:45;;;;;;;3.85;0.90;;;18.90;52.50;;;;;;6200427;23;20156;-84
2022/01/31 12:00:12;;;;;;;5.18;1.15;;;19.00;51.00;;;;;;6231737;22;20140;-83
2022/01/31 12:02:43;;;;;;;7.60;1.25;;;18.90;51.40;;;;;;6256262;22;20140;-84
2022/01/31 12:05:12;;;;;;;6.93;1.15;;;18.90;52.70;;;;;;6281195;22;20144;-84
2022/01/31 12:07:42;;;;;;;6.25;1.00;;;19.00;51.60;;;;;;6256076;22;20242;-84
2022/01/31 12:10:32;;;;;;;9.95;1.50;;;18.90;52.50;;;;;;6257546;22;20560;-84
2022/01/31 12:13:15;;;;;;;4.43;0.80;;;18.90;52.80;;;;;;6284053;22;20124;-84
2022/01/31 12:19:02;;;;;;;4.00;0.90;;;19.00;52.00;;;;;;6283580;22;20144;-83
2022/01/31 12:24:27;;;;;;;4.50;0.73;;;19.00;51.80;;;;;;6308078;22;20175;-84
2022/01/31 12:26:55;;;;;;;8.13;1.23;;;19.00;51.10;;;;;;6231042;22;20151;-85
2022/01/31 12:29:31;;;;;;;5.35;1.00;;;19.00;51.70;;;;;;6281102;22;20176;-84
2022/01/31 12:32:08;;;;;;;5.57;1.20;;;19.10;52.00;;;;;;6255346;22;20472;-84
2022/01/31 12:34:38;;;;;;;5.22;1.02;;;19.00;51.50;;;;;;6228893;22;20144;-84
2022/01/31 12:37:35;;;;;;;4.50;1.10;;;19.00;52.10;;;;;;6229582;22;20449;-84
2022/01/31 12:40:11;;;;;;;8.35;1.20;;;19.00;52.60;;;;;;6212985;22;20583;-85
2022/01/31 12:43:10;;;;;;;12.43;1.42;;;18.90;52.40;;;;;;6231417;22;20148;-84
2022/01/31 12:46:05;;;;;;;3.20;0.80;;;19.00;51.60;;;;;;6261710;22;20244;-84
2022/01/31 12:48:30;;;;;;;5.65;1.20;;;19.00;51.30;;;;;;6210050;22;20179;-84
2022/01/31 12:51:03;;;;;;;2.60;1.10;;;19.00;51.50;;;;;;6230263;22;20144;-86
2022/01/31 12:53:39;;;;;;;5.55;0.88;;;19.00;52.00;;;;;;6256379;22;20226;-86
2022/01/31 12:56:13;;;;;;;1.85;0.80;;;19.00;51.50;;;;;;6258261;22;20564;-84
2022/01/31 12:58:46;;;;;;;4.38;0.80;;;19.00;51.30;;;;;;6308281;22;20135;-84
2022/01/31 13:01:24;;;;;;;4.70;0.95;;;19.00;51.40;;;;;;6230317;22;20215;-84
2022/01/31 13:03:53;;;;;;;3.92;0.70;;;19.00;51.10;;;;;;6256254;22;20136;-83
2022/01/31 13:06:35;;;;;;;2.35;0.70;;;19.10;51.00;;;;;;6255585;22;20132;-84
2022/01/31 13:09:08;;;;;;;3.42;0.65;;;19.00;51.30;;;;;;6255972;22;20163;-84
2022/01/31 13:11:34;;;;;;;4.03;0.70;;;19.00;51.00;;;;;;6255816;22;20129;-84
2022/01/31 13:14:16;;;;;;;4.20;1.10;;;19.10;51.00;;;;;;6255194;22;20195;-84
2022/01/31 13:16:45;;;;;;;3.05;1.05;;;19.00;50.90;;;;;;6230139;22;20167;-84
2022/01/31 13:19:15;;;;;;;7.30;1.08;;;19.00;51.40;;;;;;6230143;22;20148;-84